Accueil
METAR-TAF:

METAR-TAF

Aéroports :

Aéroport de Lansing

Lansing, Michigan, États-Unis

latitude: 42-46-49N, longitude: 084-34-44W, altitude: 262 m

Observation

Le bulletin a été fait il y a 38 minutes, à 22:53 UTC
Vent 8 kt de ouest
Température 28°C
Humidité 48%
Pression 1018 hPa
Visibilité: 16.1 km
Ciel clair

METAR: KLAN 102253Z 28008KT 10SM CLR 28/16 A3006 RMK AO2 SLP177 T02780161

Heure: 19:31 (23:31 UTC)

Prévision

Le bulletin a été fait il y a 5 heures et 53 minutes, à 17:38 UTC
Prévision valable du 10 à 18 UTC au 11 à 18 UTC
Vent 7 kt de ouest
Visibilité: 10 km
Nuages épars à une hauteur de 3500 ft
A partir de 11 à 1000 UTC
Vent 4 kt de direction variable
Visibilité: 10 km
Nuages fragmentés à une hauteur de 5000 ft
averses à proximité
A partir de 11 à 1500 UTC
Vent 10 kt de nord
Visibilité: 10 km
Ciel clair

TAF: KLAN 101738Z 1018/1118 27007KT P6SM SCT035 FM111000 VRB04KT P6SM VCSH BKN050 FM111500 01010KT P6SM SKC

Observations et prévisions météorologiques de plus de 4000 aéroports (messages METAR et TAF).

Les stations disponibles sont représentées par des disques jaunes et rouges sur la carte.

Passer la souris dessus pour voir le nom de la station.

Cliquer dessus pour voir les observations et prévisions météorologiques.

Pour changer de carte: cliquez sur les boutons verts avec une croix noire pour zoomer, sur le bouton vert avec un tiret pour effectuer un zoom arrière, ou sur les flèches vertes pour les cartes adjacentes.


METAR-TAF: